sensor_id;sensor_type;location;lat;lon;timestamp;P1;durP1;ratioP1;P2;durP2;ratioP2
17604;SDS011;8921;50.964;6.800;2024-03-17T00:02:06;12.93;;;8.80;;
17604;SDS011;8921;50.964;6.800;2024-03-17T00:04:34;15.23;;;9.20;;
17604;SDS011;8921;50.964;6.800;2024-03-17T00:07:02;14.03;;;9.03;;
17604;SDS011;8921;50.964;6.800;2024-03-17T00:09:31;17.53;;;9.10;;
17604;SDS011;8921;50.964;6.800;2024-03-17T00:11:59;14.30;;;8.50;;
17604;SDS011;8921;50.964;6.800;2024-03-17T00:14:27;19.87;;;8.97;;
17604;SDS011;8921;50.964;6.800;2024-03-17T00:16:56;17.30;;;10.20;;
17604;SDS011;8921;50.964;6.800;2024-03-17T00:19:24;14.13;;;8.97;;
17604;SDS011;8921;50.964;6.800;2024-03-17T00:21:52;15.70;;;8.67;;
17604;SDS011;8921;50.964;6.800;2024-03-17T00:24:20;13.87;;;7.03;;
17604;SDS011;8921;50.964;6.800;2024-03-17T00:26:49;13.80;;;8.13;;
17604;SDS011;8921;50.964;6.800;2024-03-17T00:29:17;14.50;;;8.60;;
17604;SDS011;8921;50.964;6.800;2024-03-17T00:31:45;15.17;;;9.07;;
17604;SDS011;8921;50.964;6.800;2024-03-17T00:34:14;15.33;;;8.17;;
17604;SDS011;8921;50.964;6.800;2024-03-17T00:36:42;15.70;;;9.90;;
17604;SDS011;8921;50.964;6.800;2024-03-17T00:39:10;20.33;;;10.23;;
17604;SDS011;8921;50.964;6.800;2024-03-17T00:41:38;17.90;;;10.27;;
17604;SDS011;8921;50.964;6.800;2024-03-17T00:44:07;16.03;;;10.83;;
17604;SDS011;8921;50.964;6.800;2024-03-17T00:46:35;19.17;;;11.40;;
17604;SDS011;8921;50.964;6.800;2024-03-17T00:49:03;17.90;;;10.80;;
17604;SDS011;8921;50.964;6.800;2024-03-17T00:51:32;16.90;;;12.33;;
17604;SDS011;8921;50.964;6.800;2024-03-17T00:54:00;22.63;;;11.57;;
17604;SDS011;8921;50.964;6.800;2024-03-17T00:56:28;17.40;;;10.13;;
17604;SDS011;8921;50.964;6.800;2024-03-17T00:58:56;19.80;;;11.90;;
17604;SDS011;8921;50.964;6.800;2024-03-17T01:01:25;19.10;;;11.27;;
17604;SDS011;8921;50.964;6.800;2024-03-17T01:03:53;16.23;;;10.80;;
17604;SDS011;8921;50.964;6.800;2024-03-17T01:06:21;23.03;;;11.07;;
17604;SDS011;8921;50.964;6.800;2024-03-17T01:08:49;19.70;;;12.20;;
17604;SDS011;8921;50.964;6.800;2024-03-17T01:11:18;19.97;;;11.47;;
17604;SDS011;8921;50.964;6.800;2024-03-17T01:13:46;18.87;;;11.40;;
17604;SDS011;8921;50.964;6.800;2024-03-17T01:16:14;16.13;;;10.03;;
17604;SDS011;8921;50.964;6.800;2024-03-17T01:18:42;21.60;;;11.30;;
17604;SDS011;8921;50.964;6.800;2024-03-17T01:21:11;17.10;;;11.10;;
17604;SDS011;8921;50.964;6.800;2024-03-17T01:23:39;20.13;;;12.03;;
17604;SDS011;8921;50.964;6.800;2024-03-17T01:26:08;17.00;;;10.50;;
17604;SDS011;8921;50.964;6.800;2024-03-17T01:28:36;17.33;;;10.70;;
17604;SDS011;8921;50.964;6.800;2024-03-17T01:31:07;20.03;;;11.00;;
17604;SDS011;8921;50.964;6.800;2024-03-17T01:33:35;20.13;;;11.10;;
17604;SDS011;8921;50.964;6.800;2024-03-17T01:36:03;15.67;;;11.70;;
17604;SDS011;8921;50.964;6.800;2024-03-17T01:38:32;18.00;;;10.40;;
17604;SDS011;8921;50.964;6.800;2024-03-17T01:41:00;17.90;;;11.30;;
17604;SDS011;8921;50.964;6.800;2024-03-17T01:43:28;18.20;;;11.70;;
17604;SDS011;8921;50.964;6.800;2024-03-17T01:45:58;17.23;;;10.33;;
17604;SDS011;8921;50.964;6.800;2024-03-17T01:48:25;19.33;;;11.10;;
17604;SDS011;8921;50.964;6.800;2024-03-17T01:50:54;17.37;;;10.80;;
17604;SDS011;8921;50.964;6.800;2024-03-17T01:53:21;16.43;;;9.93;;
17604;SDS011;8921;50.964;6.800;2024-03-17T01:55:53;16.50;;;10.47;;
17604;SDS011;8921;50.964;6.800;2024-03-17T01:58:21;15.90;;;10.40;;
17604;SDS011;8921;50.964;6.800;2024-03-17T02:00:49;15.90;;;10.70;;
17604;SDS011;8921;50.964;6.800;2024-03-17T02:03:17;17.73;;;11.77;;
17604;SDS011;8921;50.964;6.800;2024-03-17T02:05:45;18.10;;;11.50;;
17604;SDS011;8921;50.964;6.800;2024-03-17T02:08:14;17.67;;;12.07;;
17604;SDS011;8921;50.964;6.800;2024-03-17T02:10:42;20.00;;;11.97;;
17604;SDS011;8921;50.964;6.800;2024-03-17T02:13:10;18.77;;;11.20;;
17604;SDS011;8921;50.964;6.800;2024-03-17T02:15:39;17.80;;;11.93;;
17604;SDS011;8921;50.964;6.800;2024-03-17T02:18:07;19.17;;;13.07;;
17604;SDS011;8921;50.964;6.800;2024-03-17T02:20:35;18.43;;;11.40;;
17604;SDS011;8921;50.964;6.800;2024-03-17T02:23:22;16.50;;;11.60;;
17604;SDS011;8921;50.964;6.800;2024-03-17T02:25:50;18.43;;;11.73;;
17604;SDS011;8921;50.964;6.800;2024-03-17T02:28:18;17.13;;;11.10;;
17604;SDS011;8921;50.964;6.800;2024-03-17T02:30:58;20.10;;;12.37;;
17604;SDS011;8921;50.964;6.800;2024-03-17T02:33:26;18.57;;;12.27;;
17604;SDS011;8921;50.964;6.800;2024-03-17T02:35:54;17.77;;;12.80;;
17604;SDS011;8921;50.964;6.800;2024-03-17T02:38:23;19.00;;;12.10;;
17604;SDS011;8921;50.964;6.800;2024-03-17T02:41:09;20.67;;;11.60;;
17604;SDS011;8921;50.964;6.800;2024-03-17T02:43:38;16.37;;;11.80;;
17604;SDS011;8921;50.964;6.800;2024-03-17T02:46:06;19.20;;;12.47;;
17604;SDS011;8921;50.964;6.800;2024-03-17T02:48:35;18.60;;;12.30;;
17604;SDS011;8921;50.964;6.800;2024-03-17T02:51:03;21.03;;;13.27;;
17604;SDS011;8921;50.964;6.800;2024-03-17T02:53:31;20.67;;;13.20;;
17604;SDS011;8921;50.964;6.800;2024-03-17T02:55:59;18.40;;;13.47;;
17604;SDS011;8921;50.964;6.800;2024-03-17T02:58:28;17.87;;;11.30;;
17604;SDS011;8921;50.964;6.800;2024-03-17T03:00:56;19.63;;;11.33;;
17604;SDS011;8921;50.964;6.800;2024-03-17T03:03:24;21.27;;;12.70;;
17604;SDS011;8921;50.964;6.800;2024-03-17T03:05:52;17.67;;;12.30;;
17604;SDS011;8921;50.964;6.800;2024-03-17T03:08:21;18.30;;;12.43;;
17604;SDS011;8921;50.964;6.800;2024-03-17T03:10:49;23.93;;;13.40;;
17604;SDS011;8921;50.964;6.800;2024-03-17T03:13:17;21.97;;;12.23;;
17604;SDS011;8921;50.964;6.800;2024-03-17T03:15:46;23.47;;;13.37;;
17604;SDS011;8921;50.964;6.800;2024-03-17T03:18:14;20.03;;;12.77;;
17604;SDS011;8921;50.964;6.800;2024-03-17T03:20:42;19.73;;;12.10;;
17604;SDS011;8921;50.964;6.800;2024-03-17T03:23:11;21.00;;;12.10;;
17604;SDS011;8921;50.964;6.800;2024-03-17T03:25:39;18.87;;;11.53;;
17604;SDS011;8921;50.964;6.800;2024-03-17T03:28:07;19.00;;;11.80;;
17604;SDS011;8921;50.964;6.800;2024-03-17T03:30:36;17.17;;;12.63;;
17604;SDS011;8921;50.964;6.800;2024-03-17T03:33:04;20.17;;;11.17;;
17604;SDS011;8921;50.964;6.800;2024-03-17T03:35:32;18.10;;;12.17;;
17604;SDS011;8921;50.964;6.800;2024-03-17T03:38:00;18.90;;;11.67;;
17604;SDS011;8921;50.964;6.800;2024-03-17T03:40:29;19.60;;;11.10;;
17604;SDS011;8921;50.964;6.800;2024-03-17T03:42:57;18.97;;;11.60;;
17604;SDS011;8921;50.964;6.800;2024-03-17T03:45:25;19.00;;;12.23;;
17604;SDS011;8921;50.964;6.800;2024-03-17T03:47:53;18.30;;;12.00;;
17604;SDS011;8921;50.964;6.800;2024-03-17T03:50:22;21.80;;;12.77;;
17604;SDS011;8921;50.964;6.800;2024-03-17T03:52:50;16.83;;;12.17;;
17604;SDS011;8921;50.964;6.800;2024-03-17T03:55:18;21.77;;;12.80;;
17604;SDS011;8921;50.964;6.800;2024-03-17T03:57:46;18.57;;;11.63;;
17604;SDS011;8921;50.964;6.800;2024-03-17T04:00:15;19.37;;;11.27;;
17604;SDS011;8921;50.964;6.800;2024-03-17T04:02:43;18.90;;;11.40;;
17604;SDS011;8921;50.964;6.800;2024-03-17T04:05:11;19.23;;;11.27;;
17604;SDS011;8921;50.964;6.800;2024-03-17T04:07:40;17.60;;;12.53;;
17604;SDS011;8921;50.964;6.800;2024-03-17T04:10:08;18.20;;;10.70;;
17604;SDS011;8921;50.964;6.800;2024-03-17T04:12:36;16.77;;;11.50;;
17604;SDS011;8921;50.964;6.800;2024-03-17T04:15:05;17.90;;;11.70;;
17604;SDS011;8921;50.964;6.800;2024-03-17T04:17:34;16.73;;;10.60;;
17604;SDS011;8921;50.964;6.800;2024-03-17T04:20:01;18.20;;;12.07;;
17604;SDS011;8921;50.964;6.800;2024-03-17T04:22:30;16.23;;;10.30;;
17604;SDS011;8921;50.964;6.800;2024-03-17T04:24:58;15.60;;;11.07;;
17604;SDS011;8921;50.964;6.800;2024-03-17T04:27:26;15.60;;;10.57;;
17604;SDS011;8921;50.964;6.800;2024-03-17T04:29:55;15.67;;;9.70;;
17604;SDS011;8921;50.964;6.800;2024-03-17T04:32:23;14.93;;;10.40;;
17604;SDS011;8921;50.964;6.800;2024-03-17T04:34:51;15.93;;;9.20;;
17604;SDS011;8921;50.964;6.800;2024-03-17T04:37:19;13.77;;;9.00;;
17604;SDS011;8921;50.964;6.800;2024-03-17T04:39:48;15.40;;;9.23;;
17604;SDS011;8921;50.964;6.800;2024-03-17T04:42:16;14.80;;;8.77;;
17604;SDS011;8921;50.964;6.800;2024-03-17T04:44:45;12.93;;;8.90;;
17604;SDS011;8921;50.964;6.800;2024-03-17T04:47:13;14.90;;;9.63;;
17604;SDS011;8921;50.964;6.800;2024-03-17T04:49:41;12.73;;;9.00;;
17604;SDS011;8921;50.964;6.800;2024-03-17T04:52:10;13.23;;;8.50;;
17604;SDS011;8921;50.964;6.800;2024-03-17T04:54:37;16.13;;;8.67;;
17604;SDS011;8921;50.964;6.800;2024-03-17T04:59:27;11.13;;;7.50;;
17604;SDS011;8921;50.964;6.800;2024-03-17T05:01:55;11.00;;;7.80;;
17604;SDS011;8921;50.964;6.800;2024-03-17T05:04:24;11.90;;;7.53;;
17604;SDS011;8921;50.964;6.800;2024-03-17T05:06:52;10.80;;;6.40;;
17604;SDS011;8921;50.964;6.800;2024-03-17T05:09:20;12.20;;;8.03;;
17604;SDS011;8921;50.964;6.800;2024-03-17T05:11:51;12.20;;;7.90;;
17604;SDS011;8921;50.964;6.800;2024-03-17T05:14:20;11.27;;;7.20;;
17604;SDS011;8921;50.964;6.800;2024-03-17T05:16:49;10.30;;;7.13;;
17604;SDS011;8921;50.964;6.800;2024-03-17T05:19:16;11.90;;;7.43;;
17604;SDS011;8921;50.964;6.800;2024-03-17T05:21:45;12.00;;;8.00;;
17604;SDS011;8921;50.964;6.800;2024-03-17T05:24:13;11.30;;;7.30;;
17604;SDS011;8921;50.964;6.800;2024-03-17T05:26:41;11.97;;;7.60;;
17604;SDS011;8921;50.964;6.800;2024-03-17T05:29:10;13.93;;;7.50;;
17604;SDS011;8921;50.964;6.800;2024-03-17T05:31:38;10.87;;;7.73;;
17604;SDS011;8921;50.964;6.800;2024-03-17T05:34:06;14.73;;;8.90;;
17604;SDS011;8921;50.964;6.800;2024-03-17T05:36:34;11.70;;;7.33;;
17604;SDS011;8921;50.964;6.800;2024-03-17T05:39:03;13.67;;;8.80;;
17604;SDS011;8921;50.964;6.800;2024-03-17T05:41:31;11.80;;;8.00;;
17604;SDS011;8921;50.964;6.800;2024-03-17T05:44:00;15.20;;;9.20;;
17604;SDS011;8921;50.964;6.800;2024-03-17T05:46:28;16.00;;;9.10;;
17604;SDS011;8921;50.964;6.800;2024-03-17T05:51:35;13.13;;;9.10;;
17604;SDS011;8921;50.964;6.800;2024-03-17T05:54:03;14.47;;;9.90;;
17604;SDS011;8921;50.964;6.800;2024-03-17T05:56:31;14.43;;;9.87;;
17604;SDS011;8921;50.964;6.800;2024-03-17T05:59:00;17.43;;;10.10;;
17604;SDS011;8921;50.964;6.800;2024-03-17T06:01:28;16.40;;;10.27;;
17604;SDS011;8921;50.964;6.800;2024-03-17T06:03:56;16.20;;;10.57;;
17604;SDS011;8921;50.964;6.800;2024-03-17T06:06:24;16.70;;;10.47;;
17604;SDS011;8921;50.964;6.800;2024-03-17T06:08:53;16.40;;;10.47;;
17604;SDS011;8921;50.964;6.800;2024-03-17T06:11:21;15.27;;;10.37;;
17604;SDS011;8921;50.964;6.800;2024-03-17T06:13:49;15.07;;;10.47;;
17604;SDS011;8921;50.964;6.800;2024-03-17T06:16:18;17.87;;;10.70;;
17604;SDS011;8921;50.964;6.800;2024-03-17T06:18:46;18.40;;;10.03;;
17604;SDS011;8921;50.964;6.800;2024-03-17T06:21:14;19.33;;;11.47;;
17604;SDS011;8921;50.964;6.800;2024-03-17T06:23:43;18.50;;;10.50;;
17604;SDS011;8921;50.964;6.800;2024-03-17T06:26:12;14.37;;;11.10;;
17604;SDS011;8921;50.964;6.800;2024-03-17T06:28:39;16.83;;;11.50;;
17604;SDS011;8921;50.964;6.800;2024-03-17T06:31:07;17.63;;;10.50;;
17604;SDS011;8921;50.964;6.800;2024-03-17T06:33:36;17.40;;;10.90;;
17604;SDS011;8921;50.964;6.800;2024-03-17T06:36:04;15.70;;;9.87;;
17604;SDS011;8921;50.964;6.800;2024-03-17T06:38:33;13.07;;;9.60;;
17604;SDS011;8921;50.964;6.800;2024-03-17T06:41:01;14.70;;;8.50;;
17604;SDS011;8921;50.964;6.800;2024-03-17T06:43:29;15.40;;;8.53;;
17604;SDS011;8921;50.964;6.800;2024-03-17T06:45:58;17.40;;;9.10;;
17604;SDS011;8921;50.964;6.800;2024-03-17T06:48:26;11.30;;;7.73;;
17604;SDS011;8921;50.964;6.800;2024-03-17T06:50:54;15.27;;;9.10;;
17604;SDS011;8921;50.964;6.800;2024-03-17T06:53:23;12.03;;;7.77;;
17604;SDS011;8921;50.964;6.800;2024-03-17T06:55:54;12.37;;;8.33;;
17604;SDS011;8921;50.964;6.800;2024-03-17T06:58:22;18.40;;;9.17;;
17604;SDS011;8921;50.964;6.800;2024-03-17T07:00:53;11.40;;;7.77;;
17604;SDS011;8921;50.964;6.800;2024-03-17T07:03:24;13.87;;;8.50;;
17604;SDS011;8921;50.964;6.800;2024-03-17T07:05:53;10.77;;;6.50;;
17604;SDS011;8921;50.964;6.800;2024-03-17T07:08:20;10.83;;;8.10;;
17604;SDS011;8921;50.964;6.800;2024-03-17T07:11:01;12.43;;;7.47;;
17604;SDS011;8921;50.964;6.800;2024-03-17T07:16:00;15.80;;;7.97;;
17604;SDS011;8921;50.964;6.800;2024-03-17T07:18:28;11.70;;;8.57;;
17604;SDS011;8921;50.964;6.800;2024-03-17T07:20:57;11.77;;;7.73;;
17604;SDS011;8921;50.964;6.800;2024-03-17T07:23:25;10.97;;;6.77;;
17604;SDS011;8921;50.964;6.800;2024-03-17T07:25:54;17.40;;;5.73;;
17604;SDS011;8921;50.964;6.800;2024-03-17T07:28:24;13.17;;;7.30;;
17604;SDS011;8921;50.964;6.800;2024-03-17T07:30:53;10.70;;;5.60;;
17604;SDS011;8921;50.964;6.800;2024-03-17T07:33:21;10.53;;;4.90;;
17604;SDS011;8921;50.964;6.800;2024-03-17T07:35:50;8.93;;;5.77;;
17604;SDS011;8921;50.964;6.800;2024-03-17T07:38:18;8.50;;;6.47;;
17604;SDS011;8921;50.964;6.800;2024-03-17T07:40:54;8.80;;;5.47;;
17604;SDS011;8921;50.964;6.800;2024-03-17T07:43:14;11.90;;;5.97;;
17604;SDS011;8921;50.964;6.800;2024-03-17T07:45:42;9.10;;;5.43;;
17604;SDS011;8921;50.964;6.800;2024-03-17T07:48:11;10.90;;;6.30;;
17604;SDS011;8921;50.964;6.800;2024-03-17T07:50:39;8.87;;;5.10;;
17604;SDS011;8921;50.964;6.800;2024-03-17T07:53:07;9.00;;;5.13;;
17604;SDS011;8921;50.964;6.800;2024-03-17T07:55:36;9.63;;;5.67;;
17604;SDS011;8921;50.964;6.800;2024-03-17T07:58:04;10.97;;;5.73;;
17604;SDS011;8921;50.964;6.800;2024-03-17T08:00:32;9.40;;;5.43;;
17604;SDS011;8921;50.964;6.800;2024-03-17T08:03:01;11.67;;;5.83;;
17604;SDS011;8921;50.964;6.800;2024-03-17T08:05:29;11.30;;;5.93;;
17604;SDS011;8921;50.964;6.800;2024-03-17T08:07:57;10.70;;;5.90;;
17604;SDS011;8921;50.964;6.800;2024-03-17T08:10:26;9.27;;;5.13;;
17604;SDS011;8921;50.964;6.800;2024-03-17T08:12:54;10.97;;;5.30;;
17604;SDS011;8921;50.964;6.800;2024-03-17T08:15:22;9.27;;;5.37;;
17604;SDS011;8921;50.964;6.800;2024-03-17T08:17:50;10.20;;;5.30;;
17604;SDS011;8921;50.964;6.800;2024-03-17T08:20:19;7.10;;;4.37;;
17604;SDS011;8921;50.964;6.800;2024-03-17T08:22:47;8.37;;;5.37;;
17604;SDS011;8921;50.964;6.800;2024-03-17T08:25:15;8.20;;;5.17;;
17604;SDS011;8921;50.964;6.800;2024-03-17T08:27:44;9.70;;;5.33;;
17604;SDS011;8921;50.964;6.800;2024-03-17T08:30:12;13.40;;;6.10;;
17604;SDS011;8921;50.964;6.800;2024-03-17T08:32:40;8.70;;;5.10;;
17604;SDS011;8921;50.964;6.800;2024-03-17T08:35:09;8.77;;;5.70;;
17604;SDS011;8921;50.964;6.800;2024-03-17T08:37:37;10.23;;;5.40;;
17604;SDS011;8921;50.964;6.800;2024-03-17T08:40:05;9.17;;;5.23;;
17604;SDS011;8921;50.964;6.800;2024-03-17T08:42:34;9.13;;;5.43;;
17604;SDS011;8921;50.964;6.800;2024-03-17T08:45:02;10.07;;;4.93;;
17604;SDS011;8921;50.964;6.800;2024-03-17T08:47:30;7.67;;;4.60;;
17604;SDS011;8921;50.964;6.800;2024-03-17T08:49:59;8.70;;;4.83;;
17604;SDS011;8921;50.964;6.800;2024-03-17T08:52:27;10.07;;;5.23;;
17604;SDS011;8921;50.964;6.800;2024-03-17T08:54:55;9.63;;;4.93;;
17604;SDS011;8921;50.964;6.800;2024-03-17T08:57:24;10.53;;;4.47;;
17604;SDS011;8921;50.964;6.800;2024-03-17T08:59:52;12.20;;;4.50;;
17604;SDS011;8921;50.964;6.800;2024-03-17T09:02:20;12.27;;;5.40;;
17604;SDS011;8921;50.964;6.800;2024-03-17T09:04:49;11.80;;;5.77;;
17604;SDS011;8921;50.964;6.800;2024-03-17T09:07:17;9.80;;;4.83;;
17604;SDS011;8921;50.964;6.800;2024-03-17T09:09:48;8.57;;;4.50;;
17604;SDS011;8921;50.964;6.800;2024-03-17T09:12:16;10.03;;;4.43;;
17604;SDS011;8921;50.964;6.800;2024-03-17T09:14:47;13.97;;;5.37;;
17604;SDS011;8921;50.964;6.800;2024-03-17T09:17:13;6.93;;;4.33;;
17604;SDS011;8921;50.964;6.800;2024-03-17T09:19:41;8.93;;;4.80;;
17604;SDS011;8921;50.964;6.800;2024-03-17T09:22:10;9.70;;;5.53;;
17604;SDS011;8921;50.964;6.800;2024-03-17T09:24:38;7.90;;;4.50;;
17604;SDS011;8921;50.964;6.800;2024-03-17T09:27:06;8.27;;;4.47;;
17604;SDS011;8921;50.964;6.800;2024-03-17T09:29:34;8.67;;;4.97;;
17604;SDS011;8921;50.964;6.800;2024-03-17T09:32:03;10.93;;;4.73;;
17604;SDS011;8921;50.964;6.800;2024-03-17T09:34:31;8.67;;;5.10;;
17604;SDS011;8921;50.964;6.800;2024-03-17T09:36:59;8.43;;;5.07;;
17604;SDS011;8921;50.964;6.800;2024-03-17T09:39:28;7.00;;;4.53;;
17604;SDS011;8921;50.964;6.800;2024-03-17T09:41:56;9.40;;;4.43;;
17604;SDS011;8921;50.964;6.800;2024-03-17T09:44:24;7.87;;;4.63;;
17604;SDS011;8921;50.964;6.800;2024-03-17T09:46:53;9.90;;;5.57;;
17604;SDS011;8921;50.964;6.800;2024-03-17T09:49:21;7.90;;;4.80;;
17604;SDS011;8921;50.964;6.800;2024-03-17T09:51:49;9.23;;;5.23;;
17604;SDS011;8921;50.964;6.800;2024-03-17T09:54:18;10.53;;;4.43;;
17604;SDS011;8921;50.964;6.800;2024-03-17T09:56:46;9.07;;;4.83;;
17604;SDS011;8921;50.964;6.800;2024-03-17T09:59:14;7.60;;;4.70;;
17604;SDS011;8921;50.964;6.800;2024-03-17T10:01:42;7.70;;;5.37;;
17604;SDS011;8921;50.964;6.800;2024-03-17T10:04:11;8.07;;;4.40;;
17604;SDS011;8921;50.964;6.800;2024-03-17T10:06:44;8.47;;;4.83;;
17604;SDS011;8921;50.964;6.800;2024-03-17T10:09:07;8.40;;;4.60;;
17604;SDS011;8921;50.964;6.800;2024-03-17T10:11:36;9.83;;;5.23;;
17604;SDS011;8921;50.964;6.800;2024-03-17T10:14:08;11.73;;;6.20;;
17604;SDS011;8921;50.964;6.800;2024-03-17T10:16:36;11.30;;;6.60;;
17604;SDS011;8921;50.964;6.800;2024-03-17T10:19:10;12.83;;;7.20;;
17604;SDS011;8921;50.964;6.800;2024-03-17T10:21:37;8.30;;;4.67;;
17604;SDS011;8921;50.964;6.800;2024-03-17T10:24:12;9.07;;;4.90;;
17604;SDS011;8921;50.964;6.800;2024-03-17T10:26:50;7.73;;;4.70;;
17604;SDS011;8921;50.964;6.800;2024-03-17T10:31:49;10.20;;;4.40;;
17604;SDS011;8921;50.964;6.800;2024-03-17T10:34:17;10.30;;;6.07;;
17604;SDS011;8921;50.964;6.800;2024-03-17T10:36:45;16.67;;;9.17;;
17604;SDS011;8921;50.964;6.800;2024-03-17T10:39:22;8.70;;;4.30;;
17604;SDS011;8921;50.964;6.800;2024-03-17T10:41:57;9.10;;;4.90;;
17604;SDS011;8921;50.964;6.800;2024-03-17T10:47:06;12.90;;;5.03;;
17604;SDS011;8921;50.964;6.800;2024-03-17T10:49:34;8.60;;;5.53;;
17604;SDS011;8921;50.964;6.800;2024-03-17T10:52:04;8.83;;;4.17;;
17604;SDS011;8921;50.964;6.800;2024-03-17T10:54:31;8.30;;;3.80;;
17604;SDS011;8921;50.964;6.800;2024-03-17T11:00:02;7.50;;;3.60;;
17604;SDS011;8921;50.964;6.800;2024-03-17T11:02:36;10.70;;;5.47;;
17604;SDS011;8921;50.964;6.800;2024-03-17T11:05:05;8.77;;;4.40;;
17604;SDS011;8921;50.964;6.800;2024-03-17T11:07:33;13.70;;;5.03;;
17604;SDS011;8921;50.964;6.800;2024-03-17T11:10:01;7.63;;;4.13;;
17604;SDS011;8921;50.964;6.800;2024-03-17T11:17:51;7.90;;;3.83;;
17604;SDS011;8921;50.964;6.800;2024-03-17T11:22:54;11.03;;;6.37;;
17604;SDS011;8921;50.964;6.800;2024-03-17T11:28:05;10.57;;;5.90;;
17604;SDS011;8921;50.964;6.800;2024-03-17T11:46:54;10.47;;;5.07;;
17604;SDS011;8921;50.964;6.800;2024-03-17T11:49:34;9.30;;;5.20;;
17604;SDS011;8921;50.964;6.800;2024-03-17T11:52:09;9.43;;;4.40;;
17604;SDS011;8921;50.964;6.800;2024-03-17T11:54:36;10.17;;;4.60;;
17604;SDS011;8921;50.964;6.800;2024-03-17T11:57:05;9.07;;;4.60;;
17604;SDS011;8921;50.964;6.800;2024-03-17T11:59:35;8.90;;;4.70;;
17604;SDS011;8921;50.964;6.800;2024-03-17T12:02:16;8.70;;;5.20;;
17604;SDS011;8921;50.964;6.800;2024-03-17T12:04:39;9.10;;;4.57;;
17604;SDS011;8921;50.964;6.800;2024-03-17T12:07:09;10.80;;;5.40;;
17604;SDS011;8921;50.964;6.800;2024-03-17T12:09:35;10.77;;;4.70;;
17604;SDS011;8921;50.964;6.800;2024-03-17T12:12:04;9.73;;;5.30;;
17604;SDS011;8921;50.964;6.800;2024-03-17T12:14:31;10.77;;;6.00;;
17604;SDS011;8921;50.964;6.800;2024-03-17T12:17:00;9.50;;;4.77;;
17604;SDS011;8921;50.964;6.800;2024-03-17T12:19:28;9.50;;;5.50;;
17604;SDS011;8921;50.964;6.800;2024-03-17T12:21:57;8.57;;;4.13;;
17604;SDS011;8921;50.964;6.800;2024-03-17T12:24:25;12.90;;;5.17;;
17604;SDS011;8921;50.964;6.800;2024-03-17T12:26:53;9.70;;;4.60;;
17604;SDS011;8921;50.964;6.800;2024-03-17T12:32:04;9.93;;;4.80;;
17604;SDS011;8921;50.964;6.800;2024-03-17T12:34:33;11.33;;;4.40;;
17604;SDS011;8921;50.964;6.800;2024-03-17T12:37:01;10.83;;;4.00;;
17604;SDS011;8921;50.964;6.800;2024-03-17T12:42:01;10.67;;;4.37;;
17604;SDS011;8921;50.964;6.800;2024-03-17T12:44:32;10.40;;;4.13;;
17604;SDS011;8921;50.964;6.800;2024-03-17T12:47:01;7.40;;;4.20;;
17604;SDS011;8921;50.964;6.800;2024-03-17T12:49:32;8.93;;;5.13;;
17604;SDS011;8921;50.964;6.800;2024-03-17T12:52:00;9.73;;;5.03;;
17604;SDS011;8921;50.964;6.800;2024-03-17T12:54:28;9.73;;;4.83;;
17604;SDS011;8921;50.964;6.800;2024-03-17T12:57:06;10.57;;;4.70;;
17604;SDS011;8921;50.964;6.800;2024-03-17T12:59:52;7.70;;;4.70;;
17604;SDS011;8921;50.964;6.800;2024-03-17T13:02:45;10.30;;;4.23;;
17604;SDS011;8921;50.964;6.800;2024-03-17T13:05:17;9.50;;;4.00;;
17604;SDS011;8921;50.964;6.800;2024-03-17T13:07:45;9.60;;;4.40;;
17604;SDS011;8921;50.964;6.800;2024-03-17T13:10:15;9.13;;;4.37;;
17604;SDS011;8921;50.964;6.800;2024-03-17T13:12:46;9.93;;;5.33;;
17604;SDS011;8921;50.964;6.800;2024-03-17T13:15:15;8.80;;;4.03;;
17604;SDS011;8921;50.964;6.800;2024-03-17T13:17:45;10.60;;;5.13;;
17604;SDS011;8921;50.964;6.800;2024-03-17T13:20:14;10.07;;;4.70;;
17604;SDS011;8921;50.964;6.800;2024-03-17T13:22:45;11.67;;;4.03;;
17604;SDS011;8921;50.964;6.800;2024-03-17T13:25:14;6.87;;;4.23;;
17604;SDS011;8921;50.964;6.800;2024-03-17T13:27:41;7.27;;;4.00;;
17604;SDS011;8921;50.964;6.800;2024-03-17T13:30:10;7.03;;;4.33;;
17604;SDS011;8921;50.964;6.800;2024-03-17T13:32:38;9.40;;;4.57;;
17604;SDS011;8921;50.964;6.800;2024-03-17T13:35:21;8.60;;;4.27;;
17604;SDS011;8921;50.964;6.800;2024-03-17T13:37:49;6.97;;;3.70;;
17604;SDS011;8921;50.964;6.800;2024-03-17T13:40:17;8.30;;;3.37;;
17604;SDS011;8921;50.964;6.800;2024-03-17T13:42:45;7.90;;;4.20;;
17604;SDS011;8921;50.964;6.800;2024-03-17T13:45:14;7.13;;;3.53;;
17604;SDS011;8921;50.964;6.800;2024-03-17T13:47:45;11.00;;;3.53;;
17604;SDS011;8921;50.964;6.800;2024-03-17T13:50:10;7.50;;;3.40;;
17604;SDS011;8921;50.964;6.800;2024-03-17T13:52:42;9.47;;;3.63;;
17604;SDS011;8921;50.964;6.800;2024-03-17T13:55:13;6.40;;;3.20;;
17604;SDS011;8921;50.964;6.800;2024-03-17T13:57:42;8.03;;;3.63;;
17604;SDS011;8921;50.964;6.800;2024-03-17T14:00:09;7.40;;;3.60;;
17604;SDS011;8921;50.964;6.800;2024-03-17T14:02:38;9.00;;;3.47;;
17604;SDS011;8921;50.964;6.800;2024-03-17T14:05:06;9.83;;;4.07;;
17604;SDS011;8921;50.964;6.800;2024-03-17T14:07:34;9.80;;;4.03;;
17604;SDS011;8921;50.964;6.800;2024-03-17T14:10:03;8.60;;;3.93;;
17604;SDS011;8921;50.964;6.800;2024-03-17T14:12:31;7.23;;;3.97;;
17604;SDS011;8921;50.964;6.800;2024-03-17T14:15:00;11.23;;;4.30;;
17604;SDS011;8921;50.964;6.800;2024-03-17T14:17:28;8.63;;;3.57;;
17604;SDS011;8921;50.964;6.800;2024-03-17T14:19:56;7.70;;;3.43;;
17604;SDS011;8921;50.964;6.800;2024-03-17T14:22:24;8.00;;;3.70;;
17604;SDS011;8921;50.964;6.800;2024-03-17T14:24:53;11.70;;;3.90;;
17604;SDS011;8921;50.964;6.800;2024-03-17T14:27:21;7.90;;;3.57;;
17604;SDS011;8921;50.964;6.800;2024-03-17T14:29:50;7.80;;;3.50;;
17604;SDS011;8921;50.964;6.800;2024-03-17T14:32:17;10.60;;;4.30;;
17604;SDS011;8921;50.964;6.800;2024-03-17T14:34:46;9.10;;;3.67;;
17604;SDS011;8921;50.964;6.800;2024-03-17T14:37:14;9.30;;;3.83;;
17604;SDS011;8921;50.964;6.800;2024-03-17T14:39:42;8.73;;;3.40;;
17604;SDS011;8921;50.964;6.800;2024-03-17T14:42:11;8.33;;;4.40;;
17604;SDS011;8921;50.964;6.800;2024-03-17T14:44:39;8.30;;;4.40;;
17604;SDS011;8921;50.964;6.800;2024-03-17T14:47:07;10.07;;;4.57;;
17604;SDS011;8921;50.964;6.800;2024-03-17T14:49:35;6.53;;;3.47;;
17604;SDS011;8921;50.964;6.800;2024-03-17T14:52:04;7.40;;;3.90;;
17604;SDS011;8921;50.964;6.800;2024-03-17T14:54:32;6.30;;;3.23;;
17604;SDS011;8921;50.964;6.800;2024-03-17T14:57:00;10.33;;;3.90;;
17604;SDS011;8921;50.964;6.800;2024-03-17T14:59:29;7.77;;;3.47;;
17604;SDS011;8921;50.964;6.800;2024-03-17T15:01:57;7.43;;;4.00;;
17604;SDS011;8921;50.964;6.800;2024-03-17T15:04:25;9.83;;;3.97;;
17604;SDS011;8921;50.964;6.800;2024-03-17T15:06:54;8.23;;;3.40;;
17604;SDS011;8921;50.964;6.800;2024-03-17T15:09:22;7.40;;;2.90;;
17604;SDS011;8921;50.964;6.800;2024-03-17T15:11:50;6.77;;;3.50;;
17604;SDS011;8921;50.964;6.800;2024-03-17T15:14:19;7.23;;;3.23;;
17604;SDS011;8921;50.964;6.800;2024-03-17T15:16:47;8.43;;;3.13;;
17604;SDS011;8921;50.964;6.800;2024-03-17T15:19:15;8.93;;;3.73;;
17604;SDS011;8921;50.964;6.800;2024-03-17T15:21:43;10.53;;;4.93;;
17604;SDS011;8921;50.964;6.800;2024-03-17T15:24:12;8.30;;;3.97;;
17604;SDS011;8921;50.964;6.800;2024-03-17T15:26:40;7.10;;;3.23;;
17604;SDS011;8921;50.964;6.800;2024-03-17T15:29:08;7.40;;;3.87;;
17604;SDS011;8921;50.964;6.800;2024-03-17T15:31:37;8.13;;;3.53;;
17604;SDS011;8921;50.964;6.800;2024-03-17T15:34:05;7.17;;;3.00;;
17604;SDS011;8921;50.964;6.800;2024-03-17T15:36:33;7.43;;;3.50;;
17604;SDS011;8921;50.964;6.800;2024-03-17T15:39:01;9.07;;;3.27;;
17604;SDS011;8921;50.964;6.800;2024-03-17T15:41:30;9.10;;;3.23;;
17604;SDS011;8921;50.964;6.800;2024-03-17T15:43:58;11.90;;;3.30;;
17604;SDS011;8921;50.964;6.800;2024-03-17T15:46:26;11.93;;;4.00;;